Time;durP1;ratioP1;P1;durP2;ratioP2;P2;SDS_P1;SDS_P2;PMS_P1;PMS_P2;Temp;Humidity;BMP_temperature;BMP_pressure;BME280_temperature;BME280_humidity;BME280_pressure;Samples;Min_cycle;Max_cycle;Signal;HPM_P1;HPM_P2
2022/01/22 00:02:07;;;;;;;13.23;5.17;;;;;;;;;;5047501;28;20181;-70
2022/01/22 00:04:33;;;;;;;9.93;4.53;;;;;;;;;;5047458;28;20347;-70
2022/01/22 00:06:58;;;;;;;8.67;4.80;;;;;;;;;;5051664;28;20559;-70
2022/01/22 00:09:26;;;;;;;15.10;4.70;;;;;;;;;;5051772;28;20196;-70
2022/01/22 00:11:53;;;;;;;11.87;5.30;;;;;;;;;;5033139;28;20181;-70
2022/01/22 00:14:24;;;;;;;7.97;5.63;;;;;;;;;;5051757;28;20197;-70
2022/01/22 00:16:50;;;;;;;10.70;4.87;;;;;;;;;;5051554;28;20195;-70
2022/01/22 00:19:15;;;;;;;11.70;5.03;;;;;;;;;;5043843;28;20174;-70
2022/01/22 00:21:41;;;;;;;17.87;6.70;;;;;;;;;;5048267;28;20174;-70
2022/01/22 00:24:09;;;;;;;14.10;6.77;;;;;;;;;;5050157;28;20198;-70
2022/01/22 00:26:34;;;;;;;10.43;5.13;;;;;;;;;;5050676;28;20177;-71
2022/01/22 00:28:59;;;;;;;9.77;5.90;;;;;;;;;;5050957;28;20276;-70
2022/01/22 00:31:25;;;;;;;11.63;5.90;;;;;;;;;;5052403;28;20223;-70
2022/01/22 00:33:50;;;;;;;7.50;6.60;;;;;;;;;;5035831;28;20202;-70
2022/01/22 00:36:16;;;;;;;11.57;6.23;;;;;;;;;;5032792;28;20169;-70
2022/01/22 00:38:41;;;;;;;11.60;6.00;;;;;;;;;;5044299;28;20260;-70
2022/01/22 00:41:06;;;;;;;12.10;5.60;;;;;;;;;;5050006;28;20280;-70
2022/01/22 00:43:31;;;;;;;16.00;6.07;;;;;;;;;;5049457;28;20243;-70
2022/01/22 00:45:56;;;;;;;12.57;5.83;;;;;;;;;;5050530;28;20200;-70
2022/01/22 00:48:21;;;;;;;14.40;6.77;;;;;;;;;;5050027;28;20563;-70
2022/01/22 00:50:51;;;;;;;15.47;6.03;;;;;;;;;;5049039;28;20236;-71
2022/01/22 00:53:16;;;;;;;10.80;5.77;;;;;;;;;;5048802;28;20204;-71
2022/01/22 00:55:41;;;;;;;12.43;5.87;;;;;;;;;;5050295;28;20190;-70
2022/01/22 00:58:07;;;;;;;10.80;5.57;;;;;;;;;;5045983;28;20586;-70
2022/01/22 01:00:32;;;;;;;16.27;6.13;;;;;;;;;;5041376;28;20562;-70
2022/01/22 01:02:57;;;;;;;18.73;6.57;;;;;;;;;;5050627;28;20881;-70
2022/01/22 01:05:22;;;;;;;10.40;5.63;;;;;;;;;;5050281;28;20189;-70
2022/01/22 01:07:48;;;;;;;11.60;5.43;;;;;;;;;;5050173;28;20185;-70
2022/01/22 01:10:15;;;;;;;15.10;5.60;;;;;;;;;;5051605;28;20193;-70
2022/01/22 01:12:41;;;;;;;12.10;5.97;;;;;;;;;;5052210;28;20537;-70
2022/01/22 01:34:16;;;;;;;17.73;7.20;;;;;;;;;;5044828;28;20303;-71
2022/01/22 01:36:41;;;;;;;14.27;6.17;;;;;;;;;;5032316;28;20259;-70
2022/01/22 01:39:10;;;;;;;15.83;5.33;;;;;;;;;;5050617;28;20185;-70
2022/01/22 01:42:00;;;;;;;13.67;5.77;;;;;;;;;;5045861;28;20639;-70
2022/01/22 01:44:25;;;;;;;8.43;5.07;;;;;;;;;;5046069;28;20201;-70
2022/01/22 01:46:52;;;;;;;17.60;5.80;;;;;;;;;;5047420;28;20212;-70
2022/01/22 01:49:17;;;;;;;15.37;5.60;;;;;;;;;;5050196;28;20177;-70
2022/01/22 01:51:44;;;;;;;10.03;5.60;;;;;;;;;;5047244;28;20200;-71
2022/01/22 01:59:21;;;;;;;11.87;4.63;;;;;;;;;;5052502;28;20905;-69
2022/01/22 02:01:46;;;;;;;13.40;4.87;;;;;;;;;;5049633;28;20258;-70
2022/01/22 02:04:13;;;;;;;8.87;4.90;;;;;;;;;;5049622;28;20210;-70
2022/01/22 02:06:38;;;;;;;11.73;4.23;;;;;;;;;;5049748;28;20621;-70
2022/01/22 02:09:07;;;;;;;13.10;4.90;;;;;;;;;;5047679;28;20200;-70
2022/01/22 02:11:33;;;;;;;10.00;4.33;;;;;;;;;;5049587;28;20182;-70
2022/01/22 02:24:59;;;;;;;15.80;4.37;;;;;;;;;;5040859;28;20310;-70
2022/01/22 02:27:24;;;;;;;14.53;4.37;;;;;;;;;;5027854;28;20663;-70
2022/01/22 02:29:50;;;;;;;9.97;3.97;;;;;;;;;;5049483;28;20262;-70
2022/01/22 02:35:00;;;;;;;9.57;3.87;;;;;;;;;;5047361;28;20271;-70
2022/01/22 02:37:31;;;;;;;11.20;3.80;;;;;;;;;;5031302;28;20235;-71
2022/01/22 02:40:06;;;;;;;10.23;4.37;;;;;;;;;;5049713;28;20186;-70
2022/01/22 02:42:34;;;;;;;11.30;4.40;;;;;;;;;;5029899;28;20176;-70
2022/01/22 02:44:59;;;;;;;9.37;4.07;;;;;;;;;;5047070;28;20208;-71
2022/01/22 02:47:24;;;;;;;8.63;3.53;;;;;;;;;;5048044;28;20181;-70
2022/01/22 02:49:50;;;;;;;12.33;4.60;;;;;;;;;;5050251;28;20580;-70
2022/01/22 02:52:17;;;;;;;10.43;3.57;;;;;;;;;;5047948;28;20178;-70
2022/01/22 02:54:43;;;;;;;16.40;4.97;;;;;;;;;;5047668;28;20304;-70
2022/01/22 02:57:09;;;;;;;8.00;3.80;;;;;;;;;;5046994;28;20288;-70
2022/01/22 02:59:34;;;;;;;7.93;3.80;;;;;;;;;;5056907;28;20185;-70
2022/01/22 03:02:01;;;;;;;7.63;3.23;;;;;;;;;;5047458;28;20189;-70
2022/01/22 03:04:26;;;;;;;9.97;3.47;;;;;;;;;;5048585;28;21369;-69
2022/01/22 03:06:51;;;;;;;7.43;3.13;;;;;;;;;;5048236;28;20295;-70
2022/01/22 03:09:18;;;;;;;8.53;3.40;;;;;;;;;;5048692;28;20245;-70
2022/01/22 03:22:21;;;;;;;7.97;3.37;;;;;;;;;;5048502;28;20193;-70
2022/01/22 03:27:31;;;;;;;12.07;3.50;;;;;;;;;;5042104;28;20817;-70
2022/01/22 03:29:57;;;;;;;15.10;3.37;;;;;;;;;;5032948;28;20209;-70
2022/01/22 03:32:24;;;;;;;9.27;3.00;;;;;;;;;;5044197;28;20216;-70
2022/01/22 03:34:59;;;;;;;15.00;4.17;;;;;;;;;;5039377;28;20399;-71
2022/01/22 03:37:25;;;;;;;8.37;3.47;;;;;;;;;;5048451;28;20209;-70
2022/01/22 03:39:50;;;;;;;7.93;3.80;;;;;;;;;;5049580;28;20189;-71
2022/01/22 03:42:15;;;;;;;12.60;3.13;;;;;;;;;;5041081;28;20627;-70
2022/01/22 03:44:40;;;;;;;12.13;3.80;;;;;;;;;;5028850;28;20193;-70
2022/01/22 03:47:06;;;;;;;19.30;3.87;;;;;;;;;;5048409;28;20185;-70
2022/01/22 03:49:31;;;;;;;16.17;4.30;;;;;;;;;;5046507;28;20181;-70
2022/01/22 03:51:57;;;;;;;8.53;3.27;;;;;;;;;;5048595;28;20192;-70
2022/01/22 03:54:22;;;;;;;7.80;3.10;;;;;;;;;;5041511;28;20305;-70
2022/01/22 03:56:48;;;;;;;9.33;3.57;;;;;;;;;;5048909;28;20295;-70
2022/01/22 03:59:14;;;;;;;8.90;3.40;;;;;;;;;;5047886;28;20200;-70
2022/01/22 04:04:18;;;;;;;15.43;4.97;;;;;;;;;;5048104;28;20212;-70
2022/01/22 04:09:30;;;;;;;11.53;3.97;;;;;;;;;;5049648;28;20193;-70
2022/01/22 04:11:56;;;;;;;8.77;3.73;;;;;;;;;;5051633;28;20178;-70
2022/01/22 04:14:26;;;;;;;12.73;3.40;;;;;;;;;;5046930;28;20666;-71
2022/01/22 04:17:04;;;;;;;14.77;4.23;;;;;;;;;;5048242;28;20179;-70
2022/01/22 04:24:56;;;;;;;10.40;3.70;;;;;;;;;;5046963;28;20243;-70
2022/01/22 04:27:23;;;;;;;7.83;3.27;;;;;;;;;;5048090;28;20178;-70
2022/01/22 04:29:49;;;;;;;8.30;3.37;;;;;;;;;;5012932;28;20756;-69
2022/01/22 04:32:14;;;;;;;7.60;4.43;;;;;;;;;;5045471;28;20224;-70
2022/01/22 04:34:39;;;;;;;9.40;2.80;;;;;;;;;;5051629;28;20292;-70
2022/01/22 04:37:04;;;;;;;7.73;2.87;;;;;;;;;;5050378;28;20205;-70
2022/01/22 04:39:30;;;;;;;9.17;3.03;;;;;;;;;;5052133;28;20662;-71
2022/01/22 04:41:56;;;;;;;10.03;4.17;;;;;;;;;;5046977;28;20182;-70
2022/01/22 04:44:25;;;;;;;12.90;3.97;;;;;;;;;;5050361;28;20296;-71
2022/01/22 04:46:59;;;;;;;11.80;3.30;;;;;;;;;;5051080;28;20788;-70
2022/01/22 04:57:17;;;;;;;13.03;3.33;;;;;;;;;;5050105;28;20212;-70
2022/01/22 04:59:43;;;;;;;9.50;3.97;;;;;;;;;;5056456;28;20174;-70
2022/01/22 05:02:08;;;;;;;9.17;3.43;;;;;;;;;;5051470;28;20184;-70
2022/01/22 05:04:33;;;;;;;6.20;2.97;;;;;;;;;;5050926;28;20202;-71
2022/01/22 05:06:58;;;;;;;13.87;3.43;;;;;;;;;;5054614;28;20192;-70
2022/01/22 05:09:23;;;;;;;8.87;3.37;;;;;;;;;;5053593;28;20185;-71
2022/01/22 05:11:49;;;;;;;12.00;3.93;;;;;;;;;;5048909;28;20181;-70
2022/01/22 05:14:14;;;;;;;11.67;2.93;;;;;;;;;;5049665;28;20240;-71
2022/01/22 05:16:39;;;;;;;8.30;2.57;;;;;;;;;;5052090;28;20224;-71
2022/01/22 05:19:31;;;;;;;6.53;2.70;;;;;;;;;;5050972;28;20251;-71
2022/01/22 05:22:02;;;;;;;9.30;3.10;;;;;;;;;;5051793;28;20232;-71
2022/01/22 05:24:31;;;;;;;11.03;2.70;;;;;;;;;;5050644;28;20196;-69
2022/01/22 05:27:50;;;;;;;5.80;2.87;;;;;;;;;;5049113;28;20631;-69
2022/01/22 05:29:57;;;;;;;6.40;2.50;;;;;;;;;;5043178;28;20565;-69
2022/01/22 05:37:34;;;;;;;9.73;3.53;;;;;;;;;;5049382;28;20240;-72
2022/01/22 05:39:59;;;;;;;7.40;2.40;;;;;;;;;;5052304;28;20209;-69
2022/01/22 05:42:24;;;;;;;6.40;2.20;;;;;;;;;;5050830;28;20651;-69
2022/01/22 05:44:49;;;;;;;6.87;2.63;;;;;;;;;;5050058;28;20197;-72
2022/01/22 05:47:21;;;;;;;7.47;2.80;;;;;;;;;;5050499;28;20186;-69
2022/01/22 05:49:46;;;;;;;5.50;2.40;;;;;;;;;;5050762;28;20211;-69
2022/01/22 05:52:14;;;;;;;8.40;2.70;;;;;;;;;;5051244;28;20264;-69
2022/01/22 06:00:04;;;;;;;5.70;2.70;;;;;;;;;;5050030;28;20199;-69
2022/01/22 06:02:29;;;;;;;7.47;2.33;;;;;;;;;;5050175;28;20669;-70
2022/01/22 06:04:54;;;;;;;8.40;2.73;;;;;;;;;;5050344;28;20225;-69
2022/01/22 06:07:19;;;;;;;6.67;2.37;;;;;;;;;;5050059;28;20188;-71
2022/01/22 06:10:02;;;;;;;8.37;2.10;;;;;;;;;;5046491;28;20550;-70
2022/01/22 06:12:46;;;;;;;5.37;2.17;;;;;;;;;;5029673;28;20239;-70
2022/01/22 06:15:11;;;;;;;3.57;2.00;;;;;;;;;;5049065;28;20682;-71
2022/01/22 06:17:37;;;;;;;6.43;2.20;;;;;;;;;;5049418;28;20239;-70
2022/01/22 06:20:03;;;;;;;10.40;2.77;;;;;;;;;;5051467;28;20174;-70
2022/01/22 06:22:28;;;;;;;6.83;2.73;;;;;;;;;;5031719;28;20287;-70
2022/01/22 06:24:54;;;;;;;5.83;2.10;;;;;;;;;;5048565;28;20194;-70
2022/01/22 06:27:19;;;;;;;5.77;1.77;;;;;;;;;;5050424;28;20188;-70
2022/01/22 06:29:44;;;;;;;9.63;2.10;;;;;;;;;;5050511;28;20182;-71
2022/01/22 06:32:10;;;;;;;5.93;1.63;;;;;;;;;;5042424;28;20691;-69
2022/01/22 06:34:35;;;;;;;6.03;1.53;;;;;;;;;;5035654;28;20209;-70
2022/01/22 06:37:00;;;;;;;8.43;1.70;;;;;;;;;;5049681;28;20178;-71
2022/01/22 06:39:26;;;;;;;3.97;1.67;;;;;;;;;;5048889;28;20965;-70
2022/01/22 06:41:52;;;;;;;7.60;1.80;;;;;;;;;;5032963;28;20186;-71
2022/01/22 06:44:19;;;;;;;9.40;1.70;;;;;;;;;;5048341;28;20706;-70
2022/01/22 06:46:46;;;;;;;5.87;1.53;;;;;;;;;;5050178;28;20177;-70
2022/01/22 06:49:11;;;;;;;5.27;1.80;;;;;;;;;;5047999;28;20515;-71
2022/01/22 06:51:36;;;;;;;10.07;2.40;;;;;;;;;;5029319;28;20569;-69
2022/01/22 06:54:03;;;;;;;8.73;2.57;;;;;;;;;;5060062;22;20201;-71
2022/01/22 06:56:29;;;;;;;6.67;2.63;;;;;;;;;;5012759;28;20186;-71
2022/01/22 06:58:55;;;;;;;7.73;2.37;;;;;;;;;;5030343;28;20624;-71
2022/01/22 07:01:20;;;;;;;8.30;2.10;;;;;;;;;;5027610;28;20213;-71
2022/01/22 07:03:45;;;;;;;7.37;2.10;;;;;;;;;;5027215;28;20178;-72
2022/01/22 07:06:11;;;;;;;11.47;4.80;;;;;;;;;;5010308;28;20186;-72
2022/01/22 07:08:36;;;;;;;5.70;2.03;;;;;;;;;;5029826;28;20185;-72
2022/01/22 07:11:01;;;;;;;3.77;1.93;;;;;;;;;;5048212;28;20216;-72
2022/01/22 07:13:27;;;;;;;12.30;2.30;;;;;;;;;;5036673;28;20221;-73
2022/01/22 07:15:52;;;;;;;10.93;2.80;;;;;;;;;;5029235;28;20601;-72
2022/01/22 07:18:17;;;;;;;10.03;2.47;;;;;;;;;;5030929;28;20290;-73
2022/01/22 07:20:43;;;;;;;13.07;2.37;;;;;;;;;;5034058;28;20182;-72
2022/01/22 07:26:07;;;;;;;11.37;3.17;;;;;;;;;;5002620;28;20193;-72
2022/01/22 07:28:32;;;;;;;6.20;3.57;;;;;;;;;;5028728;28;20182;-72
2022/01/22 07:30:59;;;;;;;7.73;3.00;;;;;;;;;;5029803;28;20193;-72
2022/01/22 07:33:25;;;;;;;9.67;2.43;;;;;;;;;;5016571;28;20178;-71
2022/01/22 07:35:51;;;;;;;11.17;2.90;;;;;;;;;;5032587;28;20205;-72
2022/01/22 07:38:16;;;;;;;10.37;4.07;;;;;;;;;;5030356;28;20580;-72
2022/01/22 07:40:41;;;;;;;5.97;2.33;;;;;;;;;;5027922;28;20186;-72
2022/01/22 07:43:07;;;;;;;11.17;2.80;;;;;;;;;;5027057;28;20177;-72
2022/01/22 07:45:32;;;;;;;10.43;2.93;;;;;;;;;;5028355;28;20213;-72
2022/01/22 07:47:57;;;;;;;11.37;2.67;;;;;;;;;;5029279;28;20174;-72
2022/01/22 07:50:23;;;;;;;9.20;2.33;;;;;;;;;;5028220;28;20182;-70
2022/01/22 07:52:48;;;;;;;11.77;3.43;;;;;;;;;;5027203;28;20208;-72
2022/01/22 07:55:15;;;;;;;6.17;2.80;;;;;;;;;;5027862;28;20324;-72
2022/01/22 07:57:41;;;;;;;8.23;3.23;;;;;;;;;;5026542;28;20229;-72
2022/01/22 08:00:07;;;;;;;11.07;2.97;;;;;;;;;;5026967;28;20621;-72
2022/01/22 08:02:32;;;;;;;8.93;2.60;;;;;;;;;;5028088;28;20182;-70
2022/01/22 08:04:57;;;;;;;7.27;2.90;;;;;;;;;;5024563;28;20255;-71
2022/01/22 08:07:22;;;;;;;7.97;3.30;;;;;;;;;;5011383;28;20202;-71
2022/01/22 08:09:48;;;;;;;11.27;3.10;;;;;;;;;;5031831;28;20686;-72
2022/01/22 08:12:13;;;;;;;8.53;2.53;;;;;;;;;;5030925;28;20189;-70
2022/01/22 08:14:38;;;;;;;6.90;2.43;;;;;;;;;;5033092;28;20198;-72
2022/01/22 08:17:04;;;;;;;7.30;2.43;;;;;;;;;;5012859;28;20183;-72
2022/01/22 08:19:29;;;;;;;7.03;3.30;;;;;;;;;;5029766;28;20174;-72
2022/01/22 08:21:54;;;;;;;6.97;2.63;;;;;;;;;;5031366;28;20189;-70
2022/01/22 08:24:24;;;;;;;5.47;2.53;;;;;;;;;;5030223;28;20202;-70
2022/01/22 08:27:04;;;;;;;10.40;3.67;;;;;;;;;;5030698;28;20170;-70
2022/01/22 08:29:29;;;;;;;8.00;2.53;;;;;;;;;;5032001;28;20178;-72
2022/01/22 08:32:28;;;;;;;6.07;3.20;;;;;;;;;;5032839;28;20171;-72
2022/01/22 08:37:44;;;;;;;8.63;2.53;;;;;;;;;;4985553;28;20210;-72
2022/01/22 08:40:10;;;;;;;7.73;2.80;;;;;;;;;;5028507;28;20183;-72
2022/01/22 08:42:36;;;;;;;10.40;3.07;;;;;;;;;;5028217;28;20177;-72
2022/01/22 08:45:01;;;;;;;12.80;3.27;;;;;;;;;;5028147;28;20691;-72
2022/01/22 08:47:26;;;;;;;9.43;2.80;;;;;;;;;;5030168;28;20182;-70
2022/01/22 08:49:51;;;;;;;8.10;2.80;;;;;;;;;;5029426;28;20182;-70
2022/01/22 08:52:19;;;;;;;9.27;2.90;;;;;;;;;;5034343;28;20282;-70
2022/01/22 08:54:44;;;;;;;6.23;2.67;;;;;;;;;;5031876;28;20211;-70
2022/01/22 08:57:10;;;;;;;8.17;2.80;;;;;;;;;;5038356;28;20264;-70
2022/01/22 08:59:35;;;;;;;7.63;3.10;;;;;;;;;;5032183;28;20277;-70
2022/01/22 09:02:01;;;;;;;6.63;2.93;;;;;;;;;;5031234;28;20304;-70
2022/01/22 09:04:26;;;;;;;7.23;3.03;;;;;;;;;;5029364;28;20237;-70
2022/01/22 09:06:51;;;;;;;7.07;2.70;;;;;;;;;;5031935;28;20182;-70
2022/01/22 09:09:17;;;;;;;5.40;2.67;;;;;;;;;;5028626;28;20185;-70
2022/01/22 09:11:43;;;;;;;7.33;3.73;;;;;;;;;;5007395;28;20256;-70
2022/01/22 09:14:10;;;;;;;6.87;2.77;;;;;;;;;;5030578;28;20233;-70
2022/01/22 09:16:35;;;;;;;10.23;3.07;;;;;;;;;;5033093;28;20197;-70
2022/01/22 09:19:06;;;;;;;10.87;3.43;;;;;;;;;;5031224;28;20202;-70
2022/01/22 09:21:35;;;;;;;9.27;2.70;;;;;;;;;;5013707;28;20170;-70
2022/01/22 09:24:00;;;;;;;9.47;3.43;;;;;;;;;;5030993;28;20328;-70
2022/01/22 09:26:26;;;;;;;6.40;2.80;;;;;;;;;;5031774;28;20663;-70
2022/01/22 09:28:52;;;;;;;8.37;3.20;;;;;;;;;;5031625;28;20682;-70
2022/01/22 09:31:17;;;;;;;8.47;2.90;;;;;;;;;;5031545;28;20305;-70
2022/01/22 09:33:43;;;;;;;11.37;3.93;;;;;;;;;;5029233;28;20651;-70
2022/01/22 09:36:09;;;;;;;8.90;3.77;;;;;;;;;;5031703;28;20602;-70
2022/01/22 09:38:34;;;;;;;8.37;3.47;;;;;;;;;;5032374;28;20202;-71
2022/01/22 09:41:00;;;;;;;5.30;3.27;;;;;;;;;;5027812;28;20189;-70
2022/01/22 09:43:25;;;;;;;6.07;3.33;;;;;;;;;;5033451;28;20266;-70
2022/01/22 09:45:51;;;;;;;7.67;3.40;;;;;;;;;;5012556;28;20236;-70
2022/01/22 09:48:16;;;;;;;9.17;3.20;;;;;;;;;;5037457;28;20175;-70
2022/01/22 09:50:41;;;;;;;5.20;2.87;;;;;;;;;;5025024;28;20261;-70
2022/01/22 09:53:07;;;;;;;6.47;3.00;;;;;;;;;;5031676;28;20636;-70
2022/01/22 09:55:32;;;;;;;7.77;3.17;;;;;;;;;;5013190;28;20242;-70
2022/01/22 09:57:58;;;;;;;6.93;3.00;;;;;;;;;;5022143;28;20234;-70
2022/01/22 10:00:25;;;;;;;10.80;3.47;;;;;;;;;;5042815;28;20269;-70
2022/01/22 10:02:51;;;;;;;12.80;4.43;;;;;;;;;;5031764;28;20181;-70
2022/01/22 10:05:30;;;;;;;7.87;3.23;;;;;;;;;;5031279;28;20251;-70
2022/01/22 10:08:15;;;;;;;10.47;3.40;;;;;;;;;;5031103;28;20205;-70
2022/01/22 10:10:40;;;;;;;9.20;2.77;;;;;;;;;;5026600;28;20186;-70
2022/01/22 10:13:05;;;;;;;7.37;2.90;;;;;;;;;;5030929;28;20269;-70
2022/01/22 10:15:33;;;;;;;6.70;2.70;;;;;;;;;;5028437;28;20206;-70
2022/01/22 10:17:58;;;;;;;5.43;3.30;;;;;;;;;;5012365;28;20256;-72
2022/01/22 10:20:24;;;;;;;13.33;3.33;;;;;;;;;;5027719;28;20663;-70
2022/01/22 10:22:53;;;;;;;13.27;5.73;;;;;;;;;;5027006;28;20251;-70
2022/01/22 10:25:30;;;;;;;8.20;2.93;;;;;;;;;;5029612;28;20221;-70
2022/01/22 10:27:56;;;;;;;11.97;3.33;;;;;;;;;;5027917;28;20193;-70
2022/01/22 10:30:22;;;;;;;11.00;3.80;;;;;;;;;;5028978;28;20182;-71
2022/01/22 10:35:15;;;;;;;7.90;2.73;;;;;;;;;;5029675;28;20221;-70
2022/01/22 10:37:40;;;;;;;4.77;2.70;;;;;;;;;;5011844;28;20217;-70
2022/01/22 10:40:15;;;;;;;10.47;3.37;;;;;;;;;;5012090;28;20550;-70
2022/01/22 10:42:41;;;;;;;8.33;3.20;;;;;;;;;;5026366;28;20209;-70
2022/01/22 10:45:09;;;;;;;5.17;2.80;;;;;;;;;;5029654;28;20668;-70
2022/01/22 10:47:34;;;;;;;8.13;3.63;;;;;;;;;;5008826;28;20686;-71
2022/01/22 10:50:18;;;;;;;13.37;3.73;;;;;;;;;;5028072;28;20190;-70
2022/01/22 10:52:51;;;;;;;8.17;3.00;;;;;;;;;;5025304;28;20519;-70
2022/01/22 10:55:16;;;;;;;8.20;3.37;;;;;;;;;;5027864;28;20321;-71
2022/01/22 10:58:01;;;;;;;10.63;5.93;;;;;;;;;;5029014;28;20205;-70
2022/01/22 11:00:27;;;;;;;13.13;4.33;;;;;;;;;;5029144;28;20264;-70
2022/01/22 11:02:52;;;;;;;10.67;4.07;;;;;;;;;;5012254;28;20206;-70
2022/01/22 11:05:33;;;;;;;6.50;4.57;;;;;;;;;;5028593;28;20205;-70
2022/01/22 11:08:12;;;;;;;11.07;4.67;;;;;;;;;;5013396;28;20667;-70
2022/01/22 11:10:37;;;;;;;9.60;4.37;;;;;;;;;;5029181;28;20185;-70
2022/01/22 11:13:02;;;;;;;9.63;4.53;;;;;;;;;;5027299;28;20197;-71
2022/01/22 11:15:28;;;;;;;13.37;4.50;;;;;;;;;;5028739;28;20213;-70
2022/01/22 11:17:54;;;;;;;8.53;4.10;;;;;;;;;;5030155;28;20301;-70
2022/01/22 11:20:20;;;;;;;8.40;5.20;;;;;;;;;;5028685;28;20190;-70
2022/01/22 11:22:46;;;;;;;14.30;4.67;;;;;;;;;;5029456;28;20705;-70
2022/01/22 11:25:11;;;;;;;6.23;4.50;;;;;;;;;;5011256;28;20206;-70
2022/01/22 11:27:37;;;;;;;7.30;4.83;;;;;;;;;;5030182;28;20643;-70
2022/01/22 11:30:11;;;;;;;6.90;4.50;;;;;;;;;;5029499;28;20185;-70
2022/01/22 11:32:42;;;;;;;6.13;4.77;;;;;;;;;;5029149;28;20636;-70
2022/01/22 11:35:08;;;;;;;7.97;5.30;;;;;;;;;;5027741;28;20205;-70
2022/01/22 11:37:43;;;;;;;6.67;5.03;;;;;;;;;;5029989;28;20216;-70
2022/01/22 11:40:08;;;;;;;11.00;5.57;;;;;;;;;;5027473;28;20178;-70
2022/01/22 11:42:55;;;;;;;9.37;5.50;;;;;;;;;;5029403;28;20678;-70
2022/01/22 11:45:25;;;;;;;8.17;5.50;;;;;;;;;;5032776;28;20190;-70
2022/01/22 11:48:09;;;;;;;9.43;5.70;;;;;;;;;;5032442;28;20178;-70
2022/01/22 11:50:34;;;;;;;8.47;5.17;;;;;;;;;;5030455;28;20193;-70
2022/01/22 11:53:19;;;;;;;11.10;6.10;;;;;;;;;;5015032;28;20174;-70
2022/01/22 11:56:04;;;;;;;12.93;5.97;;;;;;;;;;5026705;28;21151;-70
2022/01/22 11:58:30;;;;;;;8.50;5.60;;;;;;;;;;5027746;28;20229;-70
2022/01/22 12:00:55;;;;;;;12.70;6.03;;;;;;;;;;5016433;28;20660;-70
2022/01/22 12:03:20;;;;;;;10.73;5.50;;;;;;;;;;5033814;28;20257;-70
2022/01/22 12:05:54;;;;;;;6.57;4.93;;;;;;;;;;5032905;28;20288;-70
2022/01/22 12:08:20;;;;;;;8.77;4.83;;;;;;;;;;5033678;28;20202;-70
2022/01/22 12:16:10;;;;;;;13.20;6.00;;;;;;;;;;5030003;28;20709;-71
2022/01/22 12:18:40;;;;;;;11.30;5.90;;;;;;;;;;5031580;28;20518;-70
2022/01/22 12:23:33;;;;;;;9.20;5.40;;;;;;;;;;5037254;28;20315;-70
2022/01/22 12:25:59;;;;;;;12.00;5.93;;;;;;;;;;5034265;28;20674;-70
2022/01/22 12:28:37;;;;;;;10.77;6.17;;;;;;;;;;5036605;28;20624;-70
2022/01/22 12:31:04;;;;;;;10.67;7.80;;;;;;;;;;5034480;28;20166;-70
2022/01/22 12:33:29;;;;;;;14.47;6.07;;;;;;;;;;5035660;28;20182;-70
2022/01/22 12:35:59;;;;;;;10.53;5.70;;;;;;;;;;5030871;28;20657;-70
2022/01/22 12:38:29;;;;;;;10.40;5.97;;;;;;;;;;5034376;28;20680;-70
2022/01/22 12:41:13;;;;;;;12.93;6.43;;;;;;;;;;5034219;28;20217;-70
2022/01/22 12:43:38;;;;;;;11.53;5.70;;;;;;;;;;5012270;28;20178;-70
2022/01/22 12:46:04;;;;;;;12.60;6.27;;;;;;;;;;5021822;28;20443;-70
2022/01/22 12:48:35;;;;;;;8.90;6.00;;;;;;;;;;5049921;28;20178;-70
2022/01/22 12:51:08;;;;;;;9.63;6.73;;;;;;;;;;5025330;28;20245;-70
2022/01/22 12:53:35;;;;;;;10.70;6.73;;;;;;;;;;5033050;28;20236;-70
2022/01/22 12:58:29;;;;;;;12.60;6.60;;;;;;;;;;5031204;28;20289;-68
2022/01/22 13:01:11;;;;;;;11.87;6.63;;;;;;;;;;5032895;28;20184;-68
2022/01/22 13:03:38;;;;;;;15.27;6.87;;;;;;;;;;5035159;28;20177;-68
2022/01/22 13:06:03;;;;;;;10.20;6.43;;;;;;;;;;5030030;28;20548;-69
2022/01/22 13:08:29;;;;;;;12.73;6.67;;;;;;;;;;5030704;28;20185;-71
2022/01/22 13:10:55;;;;;;;12.80;6.37;;;;;;;;;;5031130;28;20191;-69
2022/01/22 13:13:21;;;;;;;10.90;6.47;;;;;;;;;;5024715;28;20706;-68
2022/01/22 13:15:46;;;;;;;9.30;6.57;;;;;;;;;;5036028;28;20674;-68
2022/01/22 13:18:12;;;;;;;11.77;7.23;;;;;;;;;;5034596;28;20226;-68
2022/01/22 13:20:37;;;;;;;9.63;7.20;;;;;;;;;;5030778;28;20215;-71
2022/01/22 13:23:16;;;;;;;12.80;7.57;;;;;;;;;;5019098;28;20636;-68
2022/01/22 13:25:41;;;;;;;15.83;8.43;;;;;;;;;;5027109;28;20703;-68
2022/01/22 13:28:10;;;;;;;12.50;7.37;;;;;;;;;;5034178;28;20192;-68
2022/01/22 13:30:41;;;;;;;12.13;6.97;;;;;;;;;;5030716;28;20175;-68
2022/01/22 13:33:16;;;;;;;15.17;9.23;;;;;;;;;;5030287;28;20181;-68
2022/01/22 13:35:57;;;;;;;11.17;8.50;;;;;;;;;;5017883;28;20263;-68
2022/01/22 13:48:59;;;;;;;11.63;8.03;;;;;;;;;;5025863;28;20185;-68
2022/01/22 13:51:25;;;;;;;14.57;8.93;;;;;;;;;;5027229;28;20205;-68
2022/01/22 13:53:50;;;;;;;15.50;9.77;;;;;;;;;;5027632;28;20186;-68
2022/01/22 13:56:17;;;;;;;14.50;10.30;;;;;;;;;;5030026;28;20194;-68
2022/01/22 13:58:42;;;;;;;13.03;8.97;;;;;;;;;;5029647;28;20217;-68
2022/01/22 14:01:28;;;;;;;13.80;8.93;;;;;;;;;;5028511;28;20170;-68
2022/01/22 14:04:06;;;;;;;12.23;9.33;;;;;;;;;;5029470;28;20185;-68
2022/01/22 14:06:32;;;;;;;12.87;9.70;;;;;;;;;;5030415;28;20629;-70
2022/01/22 14:09:10;;;;;;;13.97;9.87;;;;;;;;;;5029570;28;20213;-68
2022/01/22 14:11:37;;;;;;;16.17;9.93;;;;;;;;;;5028930;28;20212;-68
2022/01/22 14:14:03;;;;;;;15.97;12.10;;;;;;;;;;5011471;28;20293;-68
2022/01/22 14:16:29;;;;;;;16.30;11.40;;;;;;;;;;5028540;28;20186;-68
2022/01/22 14:18:54;;;;;;;18.83;11.93;;;;;;;;;;5029923;28;20205;-68
2022/01/22 14:21:21;;;;;;;16.60;11.47;;;;;;;;;;5030117;28;20593;-68
2022/01/22 14:23:50;;;;;;;20.20;13.53;;;;;;;;;;5030379;28;20181;-68
2022/01/22 14:26:16;;;;;;;25.43;12.47;;;;;;;;;;5010826;28;20181;-69
2022/01/22 14:28:44;;;;;;;20.23;11.83;;;;;;;;;;5029207;28;20189;-69
2022/01/22 14:31:23;;;;;;;17.80;13.67;;;;;;;;;;5028919;28;20674;-68
2022/01/22 14:33:48;;;;;;;22.47;12.47;;;;;;;;;;5029961;28;20209;-68
2022/01/22 14:36:15;;;;;;;18.77;14.03;;;;;;;;;;5030441;28;20190;-69
2022/01/22 14:38:49;;;;;;;19.63;13.77;;;;;;;;;;5030200;28;20202;-68
2022/01/22 14:46:52;;;;;;;21.23;14.90;;;;;;;;;;5006500;28;20189;-69
2022/01/22 14:49:20;;;;;;;20.60;14.67;;;;;;;;;;5028370;28;20232;-68
2022/01/22 14:51:46;;;;;;;22.83;16.73;;;;;;;;;;5028298;28;20576;-68
2022/01/22 14:54:11;;;;;;;22.30;15.30;;;;;;;;;;5030425;28;20246;-69
2022/01/22 14:56:36;;;;;;;20.77;14.50;;;;;;;;;;5014722;28;20233;-68
2022/01/22 14:59:02;;;;;;;24.33;16.53;;;;;;;;;;5028704;28;20299;-67
2022/01/22 15:01:27;;;;;;;22.70;14.83;;;;;;;;;;5030185;28;20178;-68
2022/01/22 15:03:53;;;;;;;22.27;15.83;;;;;;;;;;5028651;28;20181;-68
2022/01/22 15:06:18;;;;;;;22.23;15.80;;;;;;;;;;5030355;28;20170;-69
2022/01/22 15:08:43;;;;;;;22.30;15.80;;;;;;;;;;5010850;28;20540;-68
2022/01/22 15:11:08;;;;;;;21.27;16.53;;;;;;;;;;5009367;28;20204;-68
2022/01/22 15:13:33;;;;;;;26.67;16.70;;;;;;;;;;5027773;28;20532;-68
2022/01/22 15:16:01;;;;;;;25.23;16.53;;;;;;;;;;5027056;28;20198;-67
2022/01/22 15:18:50;;;;;;;23.77;16.67;;;;;;;;;;5011686;28;20636;-69
2022/01/22 15:21:11;;;;;;;30.60;18.00;;;;;;;;;;5027157;28;20690;-68
2022/01/22 15:23:37;;;;;;;25.10;17.73;;;;;;;;;;5029720;28;20265;-67
2022/01/22 15:26:03;;;;;;;28.33;18.70;;;;;;;;;;5027767;28;20205;-68
2022/01/22 15:28:34;;;;;;;24.03;18.40;;;;;;;;;;5030155;28;20182;-69
2022/01/22 15:30:59;;;;;;;27.27;17.73;;;;;;;;;;5027073;28;20251;-69
2022/01/22 15:33:47;;;;;;;23.17;17.33;;;;;;;;;;5030043;28;20182;-69
2022/01/22 15:36:10;;;;;;;24.90;17.20;;;;;;;;;;5024746;28;20212;-69
2022/01/22 15:38:35;;;;;;;24.40;16.87;;;;;;;;;;5048756;28;20202;-69
2022/01/22 15:41:00;;;;;;;25.67;17.27;;;;;;;;;;5019637;28;20637;-69
2022/01/22 15:43:25;;;;;;;24.00;17.00;;;;;;;;;;5029659;28;20226;-68
2022/01/22 15:45:51;;;;;;;26.57;17.40;;;;;;;;;;5026811;28;20198;-68
2022/01/22 15:48:16;;;;;;;19.53;15.40;;;;;;;;;;5027942;28;20197;-69
2022/01/22 15:50:41;;;;;;;24.53;16.13;;;;;;;;;;5028938;28;20213;-69
2022/01/22 15:53:06;;;;;;;29.03;16.90;;;;;;;;;;5029258;28;20268;-69
2022/01/22 15:55:32;;;;;;;25.67;16.30;;;;;;;;;;5027516;28;20214;-69
2022/01/22 15:57:57;;;;;;;24.17;17.17;;;;;;;;;;5027304;28;20264;-69
2022/01/22 16:00:24;;;;;;;22.97;16.57;;;;;;;;;;5011895;28;20223;-69
2022/01/22 16:02:49;;;;;;;23.70;17.17;;;;;;;;;;5040770;28;20205;-69
2022/01/22 16:05:16;;;;;;;27.93;17.83;;;;;;;;;;5027306;28;20218;-68
2022/01/22 16:07:41;;;;;;;23.83;17.13;;;;;;;;;;5029831;28;20226;-69
2022/01/22 16:10:07;;;;;;;26.13;17.20;;;;;;;;;;5028555;28;20600;-69
2022/01/22 16:12:32;;;;;;;24.53;17.13;;;;;;;;;;5021215;28;20186;-69
2022/01/22 16:14:58;;;;;;;29.17;17.93;;;;;;;;;;5028834;28;20570;-69
2022/01/22 16:17:24;;;;;;;22.73;16.37;;;;;;;;;;5010433;28;20694;-69
2022/01/22 16:19:50;;;;;;;28.13;16.50;;;;;;;;;;5011000;28;20563;-69
2022/01/22 16:22:15;;;;;;;25.37;17.87;;;;;;;;;;5026250;28;20167;-69
2022/01/22 16:24:40;;;;;;;27.53;18.07;;;;;;;;;;5033475;28;20264;-68
2022/01/22 16:27:06;;;;;;;27.37;17.27;;;;;;;;;;5029249;28;20270;-69
2022/01/22 16:29:31;;;;;;;27.93;16.47;;;;;;;;;;5033449;28;20270;-69
2022/01/22 16:31:56;;;;;;;26.10;17.97;;;;;;;;;;5030198;28;20206;-68